Terminal Aerodrome Forecast
Issued by NWS Blacksburg, VA

Current Version | Previous Version | Text Only | Print | Product List | Glossary Off
Versions: 1 2 3 4 5 6 7 8 9 10 11 12 13 14 15 16 17 18 19 20 21 22 23 24 25 26 27 28 29 30 31 32 33 34 35 36

449
FTUS41 KRNK 272231 AAB
TAFBLF
TAF AMD
KBLF 272231Z 2723/2818 VRB03KT P6SM VCTS OVC050CB
     FM280400 VRB04KT P6SM SCT030
     FM281400 12005KT P6SM SCT250=

USA.gov is the U.S. government's official web portal to all federal, state and local government web resources and services.